Sw Cap Ferrat 1 — 3FZK6 — position and weather

sailwx.info

Track history (hours):
 
Tides and Currents Weather Stations Pressure Air Temp Water Temp Dewpoint Dewpoint Depression Visibility Wind Speed Wind Dir Waves Ship Positions

Sw Cap Ferrat 1

Last reported at 2018-Feb-09 08:00 UTC. Time now 2018-Apr-26 17:23 UTC.
Position N 37°54' W 008°59'.
Warning: this ship's position is months out of date.

Length 183 m; draft 10.8 m.

Type: Tanker. MMSI: 374419000.

Date/timePositionNaut miles runAvg speedWind from/ knotsBaromVisibWave heightAir tempDewpointWater temp
2018-Feb-09 08:00N 37°54' W 008°59'5 9.8
2018-Feb-09 07:30N 37°55' W 008°53'2 0.1
2018-Feb-08 01:29N 37°57' W 008°53'0 0.0
2018-Feb-08 00:59N 37°57' W 008°53'0 0.0
2018-Feb-08 00:29N 37°57' W 008°53'0 0.0
2018-Feb-07 23:59N 37°57' W 008°53'0 0.0
2018-Feb-07 23:29N 37°57' W 008°53'0 0.0
2018-Feb-07 22:56N 37°57' W 008°53'0 0.0
2018-Feb-07 22:29N 37°57' W 008°53'0 0.0
2018-Feb-07 21:59N 37°57' W 008°53'0 0.0
2018-Feb-07 21:29N 37°57' W 008°53'3 0.3
2018-Feb-07 09:30N 37°54' W 008°52'0 0.0
2018-Feb-07 09:00N 37°54' W 008°52'0 0.3
2018-Feb-07 08:30N 37°54' W 008°52'2 3.5
2018-Feb-07 08:00N 37°54' W 008°55'611.3
2018-Feb-07 07:30N 37°52' W 009°02'612.0
2018-Feb-07 07:00N 37°48' W 009°07'612.4
2018-Feb-07 06:30N 37°42' W 009°11'612.3
2018-Feb-07 06:00N 37°37' W 009°14'20210.1
2018-Feb-06 09:59N 35°57' W 005°35'5 9.7
2018-Feb-06 09:30N 35°59' W 005°29'910.3
2018-Feb-06 08:38N 36°02' W 005°19'210.4
2018-Feb-06 08:25N 36°03' W 005°16'511.0
2018-Feb-06 07:57N 36°03' W 005°10'20912.3
2018-Feb-05 14:55N 37°12' W 001°04'613.6
2018-Feb-05 14:30N 37°16' W 000°59'713.7
2018-Feb-05 13:59N 37°21' W 000°53'4013.3
2018-Feb-05 10:59N 37°51' W 000°19'  
2018-Jan-31 16:41N 37°44' W 000°20'213.2
2018-Jan-31 16:30N 37°42' W 000°22'713.0
2018-Jan-31 16:00N 37°37' W 000°27'612.6
2018-Jan-31 15:30N 37°32' W 000°31'1212.2
2018-Jan-31 14:30N 37°24' W 000°43'2312.2
2018-Jan-31 12:36N 37°09' W 001°05'20711.1
2018-Jan-30 18:02N 36°01' W 005°08'110.4
2018-Jan-30 17:56N 36°01' W 005°09'510.9
2018-Jan-30 17:30N 35°60' W 005°15'510.9
2018-Jan-30 17:00N 35°58' W 005°22'510.0
2018-Jan-30 16:30N 35°57' W 005°27'  
Track history (hours):
 
Tides and Currents Weather Stations Pressure Air Temp Water Temp Dewpoint Dewpoint Depression Visibility Wind Speed Wind Dir Waves Ship Positions

Sw Cap Ferrat 1

Last reported at 2018-Feb-09 08:00 UTC. Time now 2018-Apr-26 17:23 UTC.
Position N 37°54' W 008°59'.
Warning: this ship's position is months out of date.

Length 183 m; draft 10.8 m.

Type: Tanker. MMSI: 374419000.

Date/timePositionNaut miles runAvg speedWind from/ knotsBaromVisibWave heightAir tempDewpointWater temp
2018-Feb-09 08:00N 37°54' W 008°59'5 9.8
2018-Feb-09 07:30N 37°55' W 008°53'2 0.1
2018-Feb-08 01:29N 37°57' W 008°53'0 0.0
2018-Feb-08 00:59N 37°57' W 008°53'0 0.0
2018-Feb-08 00:29N 37°57' W 008°53'0 0.0
2018-Feb-07 23:59N 37°57' W 008°53'0 0.0
2018-Feb-07 23:29N 37°57' W 008°53'0 0.0
2018-Feb-07 22:56N 37°57' W 008°53'0 0.0
2018-Feb-07 22:29N 37°57' W 008°53'0 0.0
2018-Feb-07 21:59N 37°57' W 008°53'0 0.0
2018-Feb-07 21:29N 37°57' W 008°53'3 0.3
2018-Feb-07 09:30N 37°54' W 008°52'0 0.0
2018-Feb-07 09:00N 37°54' W 008°52'0 0.3
2018-Feb-07 08:30N 37°54' W 008°52'2 3.5
2018-Feb-07 08:00N 37°54' W 008°55'611.3
2018-Feb-07 07:30N 37°52' W 009°02'612.0
2018-Feb-07 07:00N 37°48' W 009°07'612.4
2018-Feb-07 06:30N 37°42' W 009°11'612.3
2018-Feb-07 06:00N 37°37' W 009°14'20210.1
2018-Feb-06 09:59N 35°57' W 005°35'5 9.7
2018-Feb-06 09:30N 35°59' W 005°29'910.3
2018-Feb-06 08:38N 36°02' W 005°19'210.4
2018-Feb-06 08:25N 36°03' W 005°16'511.0
2018-Feb-06 07:57N 36°03' W 005°10'20912.3
2018-Feb-05 14:55N 37°12' W 001°04'613.6
2018-Feb-05 14:30N 37°16' W 000°59'713.7
2018-Feb-05 13:59N 37°21' W 000°53'4013.3
2018-Feb-05 10:59N 37°51' W 000°19'  
2018-Jan-31 16:41N 37°44' W 000°20'213.2
2018-Jan-31 16:30N 37°42' W 000°22'713.0
2018-Jan-31 16:00N 37°37' W 000°27'612.6
2018-Jan-31 15:30N 37°32' W 000°31'1212.2
2018-Jan-31 14:30N 37°24' W 000°43'2312.2
2018-Jan-31 12:36N 37°09' W 001°05'20711.1
2018-Jan-30 18:02N 36°01' W 005°08'110.4
2018-Jan-30 17:56N 36°01' W 005°09'510.9
2018-Jan-30 17:30N 35°60' W 005°15'510.9
2018-Jan-30 17:00N 35°58' W 005°22'510.0
2018-Jan-30 16:30N 35°57' W 005°27'  

Dump ship's entire track history